sensor_id;sensor_type;location;lat;lon;timestamp;temperature;humidity
77592;DHT22;66891;46.884;17.436;2023-05-07T00:01:32;14.23;89.57
77592;DHT22;66891;46.884;17.436;2023-05-07T00:04:00;14.23;89.68
77592;DHT22;66891;46.884;17.436;2023-05-07T00:06:28;14.25;89.56
77592;DHT22;66891;46.884;17.436;2023-05-07T00:08:56;14.43;88.78
77592;DHT22;66891;46.884;17.436;2023-05-07T00:11:23;14.32;89.01
77592;DHT22;66891;46.884;17.436;2023-05-07T00:13:51;14.15;89.59
77592;DHT22;66891;46.884;17.436;2023-05-07T00:16:18;14.04;89.50
77592;DHT22;66891;46.884;17.436;2023-05-07T00:18:46;13.95;89.70
77592;DHT22;66891;46.884;17.436;2023-05-07T00:21:15;13.89;89.78
77592;DHT22;66891;46.884;17.436;2023-05-07T00:23:42;13.91;90.00
77592;DHT22;66891;46.884;17.436;2023-05-07T00:26:10;13.85;90.08
77592;DHT22;66891;46.884;17.436;2023-05-07T00:28:37;14.19;89.00
77592;DHT22;66891;46.884;17.436;2023-05-07T00:31:05;14.15;88.57
77592;DHT22;66891;46.884;17.436;2023-05-07T00:33:32;14.06;88.63
77592;DHT22;66891;46.884;17.436;2023-05-07T00:35:59;13.81;89.48
77592;DHT22;66891;46.884;17.436;2023-05-07T00:38:30;13.74;89.71
77592;DHT22;66891;46.884;17.436;2023-05-07T00:40:58;13.68;90.02
77592;DHT22;66891;46.884;17.436;2023-05-07T00:43:25;13.61;89.94
77592;DHT22;66891;46.884;17.436;2023-05-07T00:45:54;13.65;89.99
77592;DHT22;66891;46.884;17.436;2023-05-07T00:48:22;13.63;89.96
77592;DHT22;66891;46.884;17.436;2023-05-07T00:50:51;13.54;90.26
77592;DHT22;66891;46.884;17.436;2023-05-07T00:53:19;13.48;90.16
77592;DHT22;66891;46.884;17.436;2023-05-07T00:55:48;13.70;89.86
77592;DHT22;66891;46.884;17.436;2023-05-07T00:58:15;13.82;89.54
77592;DHT22;66891;46.884;17.436;2023-05-07T01:00:42;13.60;90.26
77592;DHT22;66891;46.884;17.436;2023-05-07T01:03:10;13.58;89.89
77592;DHT22;66891;46.884;17.436;2023-05-07T01:05:38;13.46;90.02
77592;DHT22;66891;46.884;17.436;2023-05-07T01:08:06;13.35;89.89
77592;DHT22;66891;46.884;17.436;2023-05-07T01:10:33;13.39;89.90
77592;DHT22;66891;46.884;17.436;2023-05-07T01:13:02;13.36;89.78
77592;DHT22;66891;46.884;17.436;2023-05-07T01:15:30;13.30;89.88
77592;DHT22;66891;46.884;17.436;2023-05-07T01:17:58;13.22;90.32
77592;DHT22;66891;46.884;17.436;2023-05-07T01:20:25;13.13;90.63
77592;DHT22;66891;46.884;17.436;2023-05-07T01:22:55;13.10;90.60
77592;DHT22;66891;46.884;17.436;2023-05-07T01:25:23;13.08;90.48
77592;DHT22;66891;46.884;17.436;2023-05-07T01:27:50;13.22;90.06
77592;DHT22;66891;46.884;17.436;2023-05-07T01:30:20;13.30;90.00
77592;DHT22;66891;46.884;17.436;2023-05-07T01:32:51;13.26;90.18
77592;DHT22;66891;46.884;17.436;2023-05-07T01:35:20;13.22;90.42
77592;DHT22;66891;46.884;17.436;2023-05-07T01:37:49;13.13;90.87
77592;DHT22;66891;46.884;17.436;2023-05-07T01:40:18;13.15;90.98
77592;DHT22;66891;46.884;17.436;2023-05-07T01:42:46;13.15;91.16
77592;DHT22;66891;46.884;17.436;2023-05-07T01:45:15;13.17;91.13
77592;DHT22;66891;46.884;17.436;2023-05-07T01:47:42;13.19;91.08
77592;DHT22;66891;46.884;17.436;2023-05-07T01:50:12;13.17;91.15
77592;DHT22;66891;46.884;17.436;2023-05-07T01:52:39;13.13;91.12
77592;DHT22;66891;46.884;17.436;2023-05-07T01:55:07;13.06;91.29
77592;DHT22;66891;46.884;17.436;2023-05-07T01:57:37;13.03;91.42
77592;DHT22;66891;46.884;17.436;2023-05-07T02:00:06;12.99;91.72
77592;DHT22;66891;46.884;17.436;2023-05-07T02:02:33;13.08;91.77
77592;DHT22;66891;46.884;17.436;2023-05-07T02:05:01;12.98;91.72
77592;DHT22;66891;46.884;17.436;2023-05-07T02:07:28;12.95;91.94
77592;DHT22;66891;46.884;17.436;2023-05-07T02:09:56;12.98;92.01
77592;DHT22;66891;46.884;17.436;2023-05-07T02:12:23;12.99;91.68
77592;DHT22;66891;46.884;17.436;2023-05-07T02:14:52;13.08;91.48
77592;DHT22;66891;46.884;17.436;2023-05-07T02:17:19;12.92;91.86
77592;DHT22;66891;46.884;17.436;2023-05-07T02:19:47;12.87;92.01
77592;DHT22;66891;46.884;17.436;2023-05-07T02:22:14;12.91;91.91
77592;DHT22;66891;46.884;17.436;2023-05-07T02:24:42;12.89;91.75
77592;DHT22;66891;46.884;17.436;2023-05-07T02:27:09;12.87;91.68
77592;DHT22;66891;46.884;17.436;2023-05-07T02:29:37;12.84;91.51
77592;DHT22;66891;46.884;17.436;2023-05-07T02:32:05;12.75;91.53
77592;DHT22;66891;46.884;17.436;2023-05-07T02:34:33;12.77;91.56
77592;DHT22;66891;46.884;17.436;2023-05-07T02:37:00;12.81;91.37
77592;DHT22;66891;46.884;17.436;2023-05-07T02:39:27;12.99;90.67
77592;DHT22;66891;46.884;17.436;2023-05-07T02:41:55;12.69;91.25
77592;DHT22;66891;46.884;17.436;2023-05-07T02:44:22;12.68;91.66
77592;DHT22;66891;46.884;17.436;2023-05-07T02:46:50;12.61;91.75
77592;DHT22;66891;46.884;17.436;2023-05-07T02:49:18;12.64;91.87
77592;DHT22;66891;46.884;17.436;2023-05-07T02:51:46;12.67;91.45
77592;DHT22;66891;46.884;17.436;2023-05-07T02:54:13;12.62;91.76
77592;DHT22;66891;46.884;17.436;2023-05-07T02:56:40;12.64;91.45
77592;DHT22;66891;46.884;17.436;2023-05-07T02:59:08;12.47;91.75
77592;DHT22;66891;46.884;17.436;2023-05-07T03:01:35;12.68;91.23
77592;DHT22;66891;46.884;17.436;2023-05-07T03:04:02;12.88;90.69
77592;DHT22;66891;46.884;17.436;2023-05-07T03:06:31;12.69;90.88
77592;DHT22;66891;46.884;17.436;2023-05-07T03:08:59;12.50;91.25
77592;DHT22;66891;46.884;17.436;2023-05-07T03:11:26;12.45;91.43
77592;DHT22;66891;46.884;17.436;2023-05-07T03:13:55;12.38;91.39
77592;DHT22;66891;46.884;17.436;2023-05-07T03:16:23;12.37;91.67
77592;DHT22;66891;46.884;17.436;2023-05-07T03:18:50;12.41;91.53
77592;DHT22;66891;46.884;17.436;2023-05-07T03:21:18;12.37;91.61
77592;DHT22;66891;46.884;17.436;2023-05-07T03:23:47;12.36;91.87
77592;DHT22;66891;46.884;17.436;2023-05-07T03:26:14;12.41;91.79
77592;DHT22;66891;46.884;17.436;2023-05-07T03:28:42;12.47;91.23
77592;DHT22;66891;46.884;17.436;2023-05-07T03:31:09;12.48;91.12
77592;DHT22;66891;46.884;17.436;2023-05-07T03:33:49;12.48;91.01
77592;DHT22;66891;46.884;17.436;2023-05-07T03:36:16;12.48;90.96
77592;DHT22;66891;46.884;17.436;2023-05-07T03:38:44;12.41;90.99
77592;DHT22;66891;46.884;17.436;2023-05-07T03:41:13;12.31;91.29
77592;DHT22;66891;46.884;17.436;2023-05-07T03:43:40;12.47;90.70
77592;DHT22;66891;46.884;17.436;2023-05-07T03:46:08;12.45;90.71
77592;DHT22;66891;46.884;17.436;2023-05-07T03:48:35;12.52;90.76
77592;DHT22;66891;46.884;17.436;2023-05-07T03:51:03;12.57;91.02
77592;DHT22;66891;46.884;17.436;2023-05-07T03:53:30;12.61;90.39
77592;DHT22;66891;46.884;17.436;2023-05-07T03:55:58;12.60;90.55
77592;DHT22;66891;46.884;17.436;2023-05-07T03:58:26;12.58;90.72
77592;DHT22;66891;46.884;17.436;2023-05-07T04:00:54;12.74;90.52
77592;DHT22;66891;46.884;17.436;2023-05-07T04:03:21;12.89;90.12
77592;DHT22;66891;46.884;17.436;2023-05-07T04:05:49;12.91;90.18
77592;DHT22;66891;46.884;17.436;2023-05-07T04:08:16;12.92;90.53
77592;DHT22;66891;46.884;17.436;2023-05-07T04:10:43;12.95;90.64
77592;DHT22;66891;46.884;17.436;2023-05-07T04:13:10;12.96;90.31
77592;DHT22;66891;46.884;17.436;2023-05-07T04:15:39;13.16;90.07
77592;DHT22;66891;46.884;17.436;2023-05-07T04:18:06;13.09;89.99
77592;DHT22;66891;46.884;17.436;2023-05-07T04:20:34;13.09;89.80
77592;DHT22;66891;46.884;17.436;2023-05-07T04:23:03;13.17;89.72
77592;DHT22;66891;46.884;17.436;2023-05-07T04:25:30;13.19;89.79
77592;DHT22;66891;46.884;17.436;2023-05-07T04:27:57;13.19;89.35
77592;DHT22;66891;46.884;17.436;2023-05-07T04:30:25;13.37;88.98
77592;DHT22;66891;46.884;17.436;2023-05-07T04:32:54;13.36;89.14
77592;DHT22;66891;46.884;17.436;2023-05-07T04:35:21;13.39;89.29
77592;DHT22;66891;46.884;17.436;2023-05-07T04:37:49;13.71;88.06
77592;DHT22;66891;46.884;17.436;2023-05-07T04:40:16;13.74;88.14
77592;DHT22;66891;46.884;17.436;2023-05-07T04:42:43;13.55;88.69
77592;DHT22;66891;46.884;17.436;2023-05-07T04:45:11;13.48;89.16
77592;DHT22;66891;46.884;17.436;2023-05-07T04:47:39;13.46;89.71
77592;DHT22;66891;46.884;17.436;2023-05-07T04:50:09;13.78;88.67
77592;DHT22;66891;46.884;17.436;2023-05-07T04:52:36;13.85;88.30
77592;DHT22;66891;46.884;17.436;2023-05-07T04:55:04;13.89;88.43
77592;DHT22;66891;46.884;17.436;2023-05-07T04:57:33;14.06;88.04
77592;DHT22;66891;46.884;17.436;2023-05-07T05:00:00;13.95;87.91
77592;DHT22;66891;46.884;17.436;2023-05-07T05:02:27;14.11;87.95
77592;DHT22;66891;46.884;17.436;2023-05-07T05:04:54;14.05;88.15
77592;DHT22;66891;46.884;17.436;2023-05-07T05:07:23;14.11;88.17
77592;DHT22;66891;46.884;17.436;2023-05-07T05:09:50;14.16;88.00
77592;DHT22;66891;46.884;17.436;2023-05-07T05:12:18;14.19;88.20
77592;DHT22;66891;46.884;17.436;2023-05-07T05:14:45;14.43;87.96
77592;DHT22;66891;46.884;17.436;2023-05-07T05:17:12;14.47;87.93
77592;DHT22;66891;46.884;17.436;2023-05-07T05:19:40;14.60;87.57
77592;DHT22;66891;46.884;17.436;2023-05-07T05:22:07;14.71;87.51
77592;DHT22;66891;46.884;17.436;2023-05-07T05:24:36;14.78;87.37
77592;DHT22;66891;46.884;17.436;2023-05-07T05:27:03;14.92;87.28
77592;DHT22;66891;46.884;17.436;2023-05-07T05:29:30;14.94;87.84
77592;DHT22;66891;46.884;17.436;2023-05-07T05:32:01;15.12;87.86
77592;DHT22;66891;46.884;17.436;2023-05-07T05:34:28;15.28;88.09
77592;DHT22;66891;46.884;17.436;2023-05-07T05:36:55;15.53;87.77
77592;DHT22;66891;46.884;17.436;2023-05-07T05:39:23;15.60;87.99
77592;DHT22;66891;46.884;17.436;2023-05-07T05:41:52;15.69;87.50
77592;DHT22;66891;46.884;17.436;2023-05-07T05:44:19;15.79;87.46
77592;DHT22;66891;46.884;17.436;2023-05-07T05:46:46;15.87;87.46
77592;DHT22;66891;46.884;17.436;2023-05-07T05:49:14;15.91;87.64
77592;DHT22;66891;46.884;17.436;2023-05-07T05:51:41;16.07;87.56
77592;DHT22;66891;46.884;17.436;2023-05-07T05:54:09;16.15;87.64
77592;DHT22;66891;46.884;17.436;2023-05-07T05:56:36;16.25;87.16
77592;DHT22;66891;46.884;17.436;2023-05-07T05:59:05;16.48;86.36
77592;DHT22;66891;46.884;17.436;2023-05-07T06:01:33;16.56;86.41
77592;DHT22;66891;46.884;17.436;2023-05-07T06:04:00;16.58;86.10
77592;DHT22;66891;46.884;17.436;2023-05-07T06:06:28;16.55;86.47
77592;DHT22;66891;46.884;17.436;2023-05-07T06:08:55;16.56;86.40
77592;DHT22;66891;46.884;17.436;2023-05-07T06:11:22;16.60;86.41
77592;DHT22;66891;46.884;17.436;2023-05-07T06:13:50;16.52;86.32
77592;DHT22;66891;46.884;17.436;2023-05-07T06:16:18;16.53;86.36
77592;DHT22;66891;46.884;17.436;2023-05-07T06:18:46;16.63;86.47
77592;DHT22;66891;46.884;17.436;2023-05-07T06:21:14;16.56;86.52
77592;DHT22;66891;46.884;17.436;2023-05-07T06:23:42;16.55;85.84
77592;DHT22;66891;46.884;17.436;2023-05-07T06:26:09;16.49;85.30
77592;DHT22;66891;46.884;17.436;2023-05-07T06:28:37;16.60;84.82
77592;DHT22;66891;46.884;17.436;2023-05-07T06:31:14;16.72;84.37
77592;DHT22;66891;46.884;17.436;2023-05-07T06:33:44;16.70;83.46
77592;DHT22;66891;46.884;17.436;2023-05-07T06:36:11;16.81;83.81
77592;DHT22;66891;46.884;17.436;2023-05-07T06:38:39;16.79;84.32
77592;DHT22;66891;46.884;17.436;2023-05-07T06:41:07;16.91;83.97
77592;DHT22;66891;46.884;17.436;2023-05-07T06:43:35;16.96;83.54
77592;DHT22;66891;46.884;17.436;2023-05-07T06:46:02;17.03;83.84
77592;DHT22;66891;46.884;17.436;2023-05-07T06:48:30;17.10;83.45
77592;DHT22;66891;46.884;17.436;2023-05-07T06:50:58;17.23;83.42
77592;DHT22;66891;46.884;17.436;2023-05-07T06:53:27;17.45;82.86
77592;DHT22;66891;46.884;17.436;2023-05-07T06:55:55;17.66;81.46
77592;DHT22;66891;46.884;17.436;2023-05-07T06:58:22;17.76;80.88
77592;DHT22;66891;46.884;17.436;2023-05-07T07:00:49;17.79;79.64
77592;DHT22;66891;46.884;17.436;2023-05-07T07:03:17;17.87;80.09
77592;DHT22;66891;46.884;17.436;2023-05-07T07:05:44;17.76;79.18
77592;DHT22;66891;46.884;17.436;2023-05-07T07:08:13;17.69;79.31
77592;DHT22;66891;46.884;17.436;2023-05-07T07:10:40;17.69;78.01
77592;DHT22;66891;46.884;17.436;2023-05-07T07:13:08;17.65;78.38
77592;DHT22;66891;46.884;17.436;2023-05-07T07:15:35;17.66;78.60
77592;DHT22;66891;46.884;17.436;2023-05-07T07:18:03;17.76;78.64
77592;DHT22;66891;46.884;17.436;2023-05-07T07:20:30;17.80;78.58
77592;DHT22;66891;46.884;17.436;2023-05-07T07:22:57;18.00;77.23
77592;DHT22;66891;46.884;17.436;2023-05-07T07:25:26;18.16;76.93
77592;DHT22;66891;46.884;17.436;2023-05-07T07:27:53;18.16;76.30
77592;DHT22;66891;46.884;17.436;2023-05-07T07:30:20;18.26;75.97
77592;DHT22;66891;46.884;17.436;2023-05-07T07:32:50;18.36;76.63
77592;DHT22;66891;46.884;17.436;2023-05-07T07:35:18;18.51;74.34
77592;DHT22;66891;46.884;17.436;2023-05-07T07:37:46;18.68;74.69
77592;DHT22;66891;46.884;17.436;2023-05-07T07:40:14;18.84;73.37
77592;DHT22;66891;46.884;17.436;2023-05-07T07:42:43;18.99;72.24
77592;DHT22;66891;46.884;17.436;2023-05-07T07:45:10;19.13;71.89
77592;DHT22;66891;46.884;17.436;2023-05-07T07:47:38;19.38;71.28
77592;DHT22;66891;46.884;17.436;2023-05-07T07:50:06;19.47;71.12
77592;DHT22;66891;46.884;17.436;2023-05-07T07:52:34;19.51;69.92
77592;DHT22;66891;46.884;17.436;2023-05-07T07:55:03;19.46;70.77
77592;DHT22;66891;46.884;17.436;2023-05-07T07:57:30;19.58;70.27
77592;DHT22;66891;46.884;17.436;2023-05-07T07:59:59;19.67;68.55
77592;DHT22;66891;46.884;17.436;2023-05-07T08:02:26;19.51;67.52
77592;DHT22;66891;46.884;17.436;2023-05-07T08:04:54;19.41;67.17
77592;DHT22;66891;46.884;17.436;2023-05-07T08:07:21;19.38;70.31
77592;DHT22;66891;46.884;17.436;2023-05-07T08:09:49;19.19;70.20
77592;DHT22;66891;46.884;17.436;2023-05-07T08:12:17;19.38;69.29
77592;DHT22;66891;46.884;17.436;2023-05-07T08:14:44;19.51;69.60
77592;DHT22;66891;46.884;17.436;2023-05-07T08:17:13;19.51;70.07
77592;DHT22;66891;46.884;17.436;2023-05-07T08:19:42;19.54;70.73
77592;DHT22;66891;46.884;17.436;2023-05-07T08:22:10;19.62;68.49
77592;DHT22;66891;46.884;17.436;2023-05-07T08:24:38;19.71;69.14
77592;DHT22;66891;46.884;17.436;2023-05-07T08:27:05;19.82;67.62
77592;DHT22;66891;46.884;17.436;2023-05-07T08:29:32;20.04;67.69
77592;DHT22;66891;46.884;17.436;2023-05-07T08:31:59;20.04;67.60
77592;DHT22;66891;46.884;17.436;2023-05-07T08:34:28;20.20;67.20
77592;DHT22;66891;46.884;17.436;2023-05-07T08:36:55;20.26;67.34
77592;DHT22;66891;46.884;17.436;2023-05-07T08:39:23;20.51;66.94
77592;DHT22;66891;46.884;17.436;2023-05-07T08:41:54;20.60;66.71
77592;DHT22;66891;46.884;17.436;2023-05-07T08:44:26;20.43;65.87
77592;DHT22;66891;46.884;17.436;2023-05-07T08:46:56;20.41;64.81
77592;DHT22;66891;46.884;17.436;2023-05-07T08:49:23;20.50;64.88
77592;DHT22;66891;46.884;17.436;2023-05-07T08:51:52;20.57;64.08
77592;DHT22;66891;46.884;17.436;2023-05-07T08:54:20;20.71;63.84
77592;DHT22;66891;46.884;17.436;2023-05-07T08:56:48;21.02;63.52
77592;DHT22;66891;46.884;17.436;2023-05-07T08:59:15;21.19;62.66
77592;DHT22;66891;46.884;17.436;2023-05-07T09:01:43;21.32;61.77
77592;DHT22;66891;46.884;17.436;2023-05-07T09:04:11;21.39;61.85
77592;DHT22;66891;46.884;17.436;2023-05-07T09:06:40;21.71;61.36
77592;DHT22;66891;46.884;17.436;2023-05-07T09:09:14;21.81;60.39
77592;DHT22;66891;46.884;17.436;2023-05-07T09:11:41;22.02;58.75
77592;DHT22;66891;46.884;17.436;2023-05-07T09:14:09;22.08;59.10
77592;DHT22;66891;46.884;17.436;2023-05-07T09:16:36;22.26;57.91
77592;DHT22;66891;46.884;17.436;2023-05-07T09:19:04;22.25;57.83
77592;DHT22;66891;46.884;17.436;2023-05-07T09:21:31;22.34;57.69
77592;DHT22;66891;46.884;17.436;2023-05-07T09:23:59;22.22;57.26
77592;DHT22;66891;46.884;17.436;2023-05-07T09:26:27;22.49;57.27
77592;DHT22;66891;46.884;17.436;2023-05-07T09:28:55;22.62;57.26
77592;DHT22;66891;46.884;17.436;2023-05-07T09:31:22;22.42;56.73
77592;DHT22;66891;46.884;17.436;2023-05-07T09:33:53;22.48;56.27
77592;DHT22;66891;46.884;17.436;2023-05-07T09:36:20;22.70;56.10
77592;DHT22;66891;46.884;17.436;2023-05-07T09:38:48;22.76;56.20
77592;DHT22;66891;46.884;17.436;2023-05-07T09:41:19;22.69;56.13
77592;DHT22;66891;46.884;17.436;2023-05-07T09:43:53;22.64;56.33
77592;DHT22;66891;46.884;17.436;2023-05-07T09:46:31;22.83;56.69
77592;DHT22;66891;46.884;17.436;2023-05-07T09:49:02;23.11;57.18
77592;DHT22;66891;46.884;17.436;2023-05-07T09:51:30;23.10;54.53
77592;DHT22;66891;46.884;17.436;2023-05-07T09:54:01;22.93;54.38
77592;DHT22;66891;46.884;17.436;2023-05-07T09:56:30;23.01;55.91
77592;DHT22;66891;46.884;17.436;2023-05-07T09:59:00;22.89;56.85
77592;DHT22;66891;46.884;17.436;2023-05-07T10:01:30;23.10;57.22
77592;DHT22;66891;46.884;17.436;2023-05-07T10:03:59;23.01;57.42
77592;DHT22;66891;46.884;17.436;2023-05-07T10:06:26;22.91;56.33
77592;DHT22;66891;46.884;17.436;2023-05-07T10:08:55;22.66;56.37
77592;DHT22;66891;46.884;17.436;2023-05-07T10:11:23;22.79;57.22
77592;DHT22;66891;46.884;17.436;2023-05-07T10:13:51;22.87;57.11
77592;DHT22;66891;46.884;17.436;2023-05-07T10:16:20;22.99;56.38
77592;DHT22;66891;46.884;17.436;2023-05-07T10:18:49;23.08;56.11
77592;DHT22;66891;46.884;17.436;2023-05-07T10:21:19;23.45;55.64
77592;DHT22;66891;46.884;17.436;2023-05-07T10:23:50;22.91;56.81
77592;DHT22;66891;46.884;17.436;2023-05-07T10:26:20;23.01;56.35
77592;DHT22;66891;46.884;17.436;2023-05-07T10:28:53;23.52;56.65
77592;DHT22;66891;46.884;17.436;2023-05-07T10:31:52;23.96;56.14
77592;DHT22;66891;46.884;17.436;2023-05-07T10:34:25;23.70;55.92
77592;DHT22;66891;46.884;17.436;2023-05-07T10:36:54;23.21;56.75
77592;DHT22;66891;46.884;17.436;2023-05-07T10:39:23;23.32;56.04
77592;DHT22;66891;46.884;17.436;2023-05-07T10:41:51;23.20;56.20
77592;DHT22;66891;46.884;17.436;2023-05-07T10:44:25;23.65;56.32
77592;DHT22;66891;46.884;17.436;2023-05-07T10:47:08;23.97;55.09
77592;DHT22;66891;46.884;17.436;2023-05-07T10:49:50;24.02;54.44
77592;DHT22;66891;46.884;17.436;2023-05-07T10:52:37;24.18;54.76
77592;DHT22;66891;46.884;17.436;2023-05-07T10:55:20;24.03;54.22
77592;DHT22;66891;46.884;17.436;2023-05-07T10:57:48;23.99;54.74
77592;DHT22;66891;46.884;17.436;2023-05-07T11:00:43;24.03;54.85
77592;DHT22;66891;46.884;17.436;2023-05-07T11:03:12;24.24;54.23
77592;DHT22;66891;46.884;17.436;2023-05-07T11:05:39;23.70;53.86
77592;DHT22;66891;46.884;17.436;2023-05-07T11:08:08;23.80;54.00
77592;DHT22;66891;46.884;17.436;2023-05-07T11:10:54;23.79;54.94
77592;DHT22;66891;46.884;17.436;2023-05-07T11:13:43;23.49;54.82
77592;DHT22;66891;46.884;17.436;2023-05-07T11:16:18;23.62;55.15
77592;DHT22;66891;46.884;17.436;2023-05-07T11:18:48;23.73;54.48
77592;DHT22;66891;46.884;17.436;2023-05-07T11:21:32;23.59;54.89
77592;DHT22;66891;46.884;17.436;2023-05-07T11:24:01;23.68;55.33
77592;DHT22;66891;46.884;17.436;2023-05-07T11:26:30;23.58;54.20
77592;DHT22;66891;46.884;17.436;2023-05-07T11:28:58;24.18;54.60
77592;DHT22;66891;46.884;17.436;2023-05-07T11:31:27;24.12;54.60
77592;DHT22;66891;46.884;17.436;2023-05-07T11:33:58;24.50;53.84
77592;DHT22;66891;46.884;17.436;2023-05-07T11:36:30;24.03;54.74
77592;DHT22;66891;46.884;17.436;2023-05-07T11:38:57;24.50;54.40
77592;DHT22;66891;46.884;17.436;2023-05-07T11:41:33;24.58;54.08
77592;DHT22;66891;46.884;17.436;2023-05-07T11:44:01;25.05;52.78
77592;DHT22;66891;46.884;17.436;2023-05-07T11:46:28;24.95;53.17
77592;DHT22;66891;46.884;17.436;2023-05-07T11:48:58;24.55;52.71
77592;DHT22;66891;46.884;17.436;2023-05-07T11:51:25;24.86;52.74
77592;DHT22;66891;46.884;17.436;2023-05-07T11:53:54;25.34;51.82
77592;DHT22;66891;46.884;17.436;2023-05-07T11:56:21;24.75;52.36
77592;DHT22;66891;46.884;17.436;2023-05-07T11:58:48;24.81;52.36
77592;DHT22;66891;46.884;17.436;2023-05-07T12:01:16;24.43;52.59
77592;DHT22;66891;46.884;17.436;2023-05-07T12:03:45;24.47;53.91
77592;DHT22;66891;46.884;17.436;2023-05-07T12:06:16;24.54;53.89
77592;DHT22;66891;46.884;17.436;2023-05-07T12:08:44;24.58;53.09
77592;DHT22;66891;46.884;17.436;2023-05-07T12:11:15;24.54;54.06
77592;DHT22;66891;46.884;17.436;2023-05-07T12:13:44;24.33;53.12
77592;DHT22;66891;46.884;17.436;2023-05-07T12:16:12;24.44;52.48
77592;DHT22;66891;46.884;17.436;2023-05-07T12:18:39;25.17;52.42
77592;DHT22;66891;46.884;17.436;2023-05-07T12:21:07;25.73;50.65
77592;DHT22;66891;46.884;17.436;2023-05-07T12:23:37;25.73;49.83
77592;DHT22;66891;46.884;17.436;2023-05-07T12:26:05;25.54;50.86
77592;DHT22;66891;46.884;17.436;2023-05-07T12:28:37;25.43;50.70
77592;DHT22;66891;46.884;17.436;2023-05-07T12:31:05;25.54;50.56
77592;DHT22;66891;46.884;17.436;2023-05-07T12:33:34;26.19;49.45
77592;DHT22;66891;46.884;17.436;2023-05-07T12:36:05;25.80;51.21
77592;DHT22;66891;46.884;17.436;2023-05-07T12:38:36;24.98;51.87
77592;DHT22;66891;46.884;17.436;2023-05-07T12:41:05;25.29;51.40
77592;DHT22;66891;46.884;17.436;2023-05-07T12:43:34;25.03;52.48
77592;DHT22;66891;46.884;17.436;2023-05-07T12:46:04;24.51;52.23
77592;DHT22;66891;46.884;17.436;2023-05-07T12:48:32;24.88;53.02
77592;DHT22;66891;46.884;17.436;2023-05-07T12:51:00;24.62;52.82
77592;DHT22;66891;46.884;17.436;2023-05-07T12:53:29;25.22;52.78
77592;DHT22;66891;46.884;17.436;2023-05-07T12:55:59;25.19;51.08
77592;DHT22;66891;46.884;17.436;2023-05-07T12:58:27;25.46;51.87
77592;DHT22;66891;46.884;17.436;2023-05-07T13:01:05;25.67;51.27
77592;DHT22;66891;46.884;17.436;2023-05-07T13:03:33;25.53;50.93
77592;DHT22;66891;46.884;17.436;2023-05-07T13:06:03;24.81;52.29
77592;DHT22;66891;46.884;17.436;2023-05-07T13:08:31;24.86;52.51
77592;DHT22;66891;46.884;17.436;2023-05-07T13:11:02;24.24;53.52
77592;DHT22;66891;46.884;17.436;2023-05-07T13:13:30;23.73;54.24
77592;DHT22;66891;46.884;17.436;2023-05-07T13:15:59;23.80;53.76
77592;DHT22;66891;46.884;17.436;2023-05-07T13:18:28;24.06;52.75
77592;DHT22;66891;46.884;17.436;2023-05-07T13:20:56;24.03;53.39
77592;DHT22;66891;46.884;17.436;2023-05-07T13:23:23;23.86;53.50
77592;DHT22;66891;46.884;17.436;2023-05-07T13:25:51;23.65;53.10
77592;DHT22;66891;46.884;17.436;2023-05-07T13:28:26;23.47;53.94
77592;DHT22;66891;46.884;17.436;2023-05-07T13:30:53;23.47;54.64
77592;DHT22;66891;46.884;17.436;2023-05-07T13:33:21;23.47;54.60
77592;DHT22;66891;46.884;17.436;2023-05-07T13:35:49;23.54;54.80
77592;DHT22;66891;46.884;17.436;2023-05-07T13:38:16;23.32;55.51
77592;DHT22;66891;46.884;17.436;2023-05-07T13:40:43;23.25;56.06
77592;DHT22;66891;46.884;17.436;2023-05-07T13:43:11;23.17;55.72
77592;DHT22;66891;46.884;17.436;2023-05-07T13:45:39;23.39;56.09
77592;DHT22;66891;46.884;17.436;2023-05-07T13:48:07;23.17;55.57
77592;DHT22;66891;46.884;17.436;2023-05-07T13:50:34;23.22;55.49
77592;DHT22;66891;46.884;17.436;2023-05-07T13:53:02;23.35;54.81
77592;DHT22;66891;46.884;17.436;2023-05-07T13:55:29;23.27;55.90
77592;DHT22;66891;46.884;17.436;2023-05-07T13:57:58;23.38;56.57
77592;DHT22;66891;46.884;17.436;2023-05-07T14:00:26;23.30;56.15
77592;DHT22;66891;46.884;17.436;2023-05-07T14:02:55;23.58;55.02
77592;DHT22;66891;46.884;17.436;2023-05-07T14:05:23;23.38;54.82
77592;DHT22;66891;46.884;17.436;2023-05-07T14:07:51;23.42;54.83
77592;DHT22;66891;46.884;17.436;2023-05-07T14:10:19;23.31;54.10
77592;DHT22;66891;46.884;17.436;2023-05-07T14:12:46;23.52;54.00
77592;DHT22;66891;46.884;17.436;2023-05-07T14:15:14;23.58;54.25
77592;DHT22;66891;46.884;17.436;2023-05-07T14:17:42;23.52;54.14
77592;DHT22;66891;46.884;17.436;2023-05-07T14:20:11;23.31;55.51
77592;DHT22;66891;46.884;17.436;2023-05-07T14:22:40;23.22;55.88
77592;DHT22;66891;46.884;17.436;2023-05-07T14:25:08;23.47;55.79
77592;DHT22;66891;46.884;17.436;2023-05-07T14:27:36;23.52;56.39
77592;DHT22;66891;46.884;17.436;2023-05-07T14:30:05;23.69;54.51
77592;DHT22;66891;46.884;17.436;2023-05-07T14:32:32;23.70;54.48
77592;DHT22;66891;46.884;17.436;2023-05-07T14:35:00;23.73;54.60
77592;DHT22;66891;46.884;17.436;2023-05-07T14:37:28;23.44;54.43
77592;DHT22;66891;46.884;17.436;2023-05-07T14:39:56;23.68;55.52
77592;DHT22;66891;46.884;17.436;2023-05-07T14:42:23;23.62;55.03
77592;DHT22;66891;46.884;17.436;2023-05-07T14:44:50;23.52;54.90
77592;DHT22;66891;46.884;17.436;2023-05-07T14:47:20;23.45;55.34
77592;DHT22;66891;46.884;17.436;2023-05-07T14:49:47;23.37;55.29
77592;DHT22;66891;46.884;17.436;2023-05-07T14:52:14;23.28;55.80
77592;DHT22;66891;46.884;17.436;2023-05-07T14:54:43;23.39;55.76
77592;DHT22;66891;46.884;17.436;2023-05-07T14:57:11;23.32;55.46
77592;DHT22;66891;46.884;17.436;2023-05-07T14:59:43;23.54;54.38
77592;DHT22;66891;46.884;17.436;2023-05-07T15:02:11;23.58;54.53
77592;DHT22;66891;46.884;17.436;2023-05-07T15:04:39;23.49;55.24
77592;DHT22;66891;46.884;17.436;2023-05-07T15:07:13;23.37;55.94
77592;DHT22;66891;46.884;17.436;2023-05-07T15:09:45;23.12;55.70
77592;DHT22;66891;46.884;17.436;2023-05-07T15:12:14;23.04;56.21
77592;DHT22;66891;46.884;17.436;2023-05-07T15:14:41;23.11;56.69
77592;DHT22;66891;46.884;17.436;2023-05-07T15:17:09;22.96;56.17
77592;DHT22;66891;46.884;17.436;2023-05-07T15:19:36;22.87;56.17
77592;DHT22;66891;46.884;17.436;2023-05-07T15:22:04;22.96;56.69
77592;DHT22;66891;46.884;17.436;2023-05-07T15:24:32;22.82;57.36